Flaxton, North Dakota
Current Conditions -  °F | °C
As of 9:00 PM on Saturday 24 Jan 2015 (Local Time) from CYEN Reporting Station
Overcast Overcast  
Wind Chill: 25°   Ceiling: 1000
Heat Index: 36°   Visibility: 15mi
Dew Point: 32°   Wind: 21mph
Humidity: 87%   Direction: 300°WNW
Pressure: 29.81"   Gusts: 28mph
Location:  48.9°N, 102.39°W
Report Text: CYEN 250300Z 30018G24KT 15SM OVC010 02/00 A2981 RMK SC8 SLP121
Loading
Personal Weather Stations






























Interactive Weather Map New forecast layout! Learn more

10-Day Weather Forecast

Advertisements
Track Severe Weather on mobile